< < Back
Terminal Aerodrome Forecast


Current Version              Previous Versions:   1  2  3  4  5  6  7  8  9  

Terminal Aerodrome Forecast

809
FTUS42 KGSP 182125 AAA
TAFAVL
TAF AMD
KAVL 182125Z 1821/1918 14006KT P6SM VCSH BKN045
     FM190300 14004KT P6SM OVC017
     FM190600 16006KT P6SM -SHRA OVC015
     FM191200 15009KT 2SM SHRA BR OVC008
     FM191600 15010G20KT 3SM +SHRA BR VCTS OVC003CB=

Latest METAR

393
SAUS70 KWBC 190400 RRD
MTRAVL
METAR KAVL 190354Z AUTO 17004KT 10SM BKN016 OVC024 17/15 A3003 RMK AO2
SLP146 T01670150 $


USA.gov is the U.S. government's official web portal to all federal, state and local government web resources and services.